Impacts METAR Board
IDs:

KMEM - Memphis Intl, TN, US

Updated at: 2000 UTC 21 Sep 2021
Potential Impact None Slight Moderate High
Time 21/08Z 21/09Z 21/10Z 21/11Z 21/12Z 21/13Z 21/14Z 21/15Z 21/16Z 21/17Z 21/18Z 21/19Z 21/20Z
Temp73 72 73 72 72 74 78 82 76 73 78 81 81
Dewpt70 70 70 70 70 71 72 73 67 69 69 70 71
Altim29.95 29.96 29.97 29.98 30.00 30.02 30.02 30.03 30.06 30.04 30.05 30.02 30.02
VIS10 10 10 10 10 10 10 10 10 10 10 10 10
CIG-- -- -- -- -- 250 250 250 39 100 250 140 90
CoverCLRCLRCLRFEWSCTBKNBKNBKNBKNBKNBKNBKNOVC
FltCatVFRVFRVFRVFRVFRVFRVFRVFRVFRVFRVFRVFRVFR
WX-----------------RA--------
WDir1501701702301701701800350000200
WSpd4 4 5 4 4 6 6 0 12 4 0 3 3
WGst-- -- -- -- -- -- -- -- 22 -- -- -- --
Raw hourly METARs
KMEM 210754Z 15004KT 10SM CLR 23/21 A2995 RMK AO2 SLP138 T02280211
KMEM 210854Z 17004KT 10SM CLR 22/21 A2996 RMK AO2 SLP139 T02220211 55000
KMEM 210954Z 17005KT 10SM CLR 23/21 A2997 RMK AO2 SLP143 T02280211
KMEM 211054Z 23004KT 10SM FEW250 22/21 A2998 RMK AO2 SLP148 T02220211
KMEM 211154Z 17004KT 10SM FEW020 SCT250 22/21 A3000 RMK AO2 SLP155 70005 T02220211 10233 20217 53016
KMEM 211254Z 17006KT 10SM FEW150 BKN250 23/22 A3002 RMK AO2 SLP160 T02330217
KMEM 211354Z 18006KT 10SM FEW065 SCT150 BKN250 26/22 A3002 RMK AO2 SLP162 T02560222
KMEM 211454Z 00000KT 10SM FEW039 SCT060 SCT150 BKN250 28/23 A3003 RMK AO2 LTG DSNT N AND NW SLP165 CB DSNT NW-N-NE MOV SE T02780228 51010
KMEM 211554Z 35012G22KT 10SM -RA SCT023CB BKN039 BKN100 BKN200 24/19 A3006 RMK AO2 PK WND 01026/1542 LTG DSNT SW AND W RAB54 SLP176 CB OHD MOV SE P0000 T02440194
KMEM 211654Z VRB04KT 10SM FEW029CB SCT055 BKN100 BKN250 23/21 A3004 RMK AO2 LTG DSNT SE-SW RAE52 SLP171 CB S-SW MOV SE VCSH S-SW P0027 T02280206
KMEM 211754Z 00000KT 10SM FEW050 SCT110 BKN250 26/21 A3005 RMK AO2 LTG DSNT SE AND S SLP170 CB DSNT SE-S P0001 60028 T02560206 10294 20217 55006
KMEM 211854Z VRB03KT 10SM SCT110 BKN140 BKN250 27/21 A3002 RMK AO2 LTG DSNT E AND SW SLP161 T02720211
KMEM 211954Z 20003KT 10SM SCT038 BKN090 BKN120 OVC250 27/22 A3002 RMK AO2 SLP160 T02720217



Page loaded:  20:34 UTC  |   01:34 PM Pacific  |   02:34 PM Mountain  |   03:34 PM Central  |   04:34 PM Eastern

 

ADVISORIES

FORECASTS

FORECASTS

OBSERVATIONS

USER TOOLS

ABOUT US